Time;durP1;ratioP1;P1;durP2;ratioP2;P2;SDS_P1;SDS_P2;PMS_P1;PMS_P2;Temp;Humidity;BMP_temperature;BMP_pressure;BME280_temperature;BME280_humidity;BME280_pressure;Samples;Min_cycle;Max_cycle;Signal;HPM_P1;HPM_P2
2023/01/23 14:20:38;;;;;;;25.60;20.40;;;;;;;2.95;72.22;102501.65;104477;1305;545864;-82
2023/01/23 14:23:48;;;;;;;24.40;19.80;;;;;;;3.01;72.12;102500.61;106571;1289;22551;-89
2023/01/23 14:27:57;;;;;;;23.80;18.60;;;;;;;3.11;72.11;102505.64;106807;1289;22504;-91
2023/01/23 14:31:13;;;;;;;23.50;18.10;;;;;;;3.19;72.15;102505.40;106354;1289;22561;-86
2023/01/23 14:35:21;;;;;;;23.80;18.70;;;;;;;3.23;71.95;102502.80;102890;1284;5417794;-91
2023/01/23 14:38:35;;;;;;;26.00;19.70;;;;;;;3.27;71.97;102511.05;107311;1279;25327;-88
2023/01/23 14:42:46;;;;;;;24.30;18.20;;;;;;;3.25;71.83;102503.45;107490;1281;26874;-88
2023/01/23 14:46:38;;;;;;;22.20;16.90;;;;;;;3.22;72.04;102503.14;107279;1278;24296;-87
2023/01/23 14:50:49;;;;;;;22.50;17.50;;;;;;;3.27;72.03;102507.58;107189;1285;22598;-89
2023/01/23 14:55:02;;;;;;;20.70;17.00;;;;;;;3.34;72.14;102510.40;107606;1290;25242;-91
2023/01/23 14:59:10;;;;;;;21.90;17.80;;;;;;;3.38;72.02;102507.46;106926;1293;22616;-88
2023/01/23 15:03:13;;;;;;;21.70;17.20;;;;;;;3.40;72.00;102509.48;107411;1300;23322;-90
2023/01/23 15:07:00;;;;;;;22.80;18.30;;;;;;;3.37;71.95;102514.21;106307;1311;22534;-89
2023/01/23 15:11:05;;;;;;;22.00;18.90;;;;;;;3.37;72.12;102516.27;106520;1311;22732;-89
2023/01/23 15:15:03;;;;;;;;;;;;;;;;;;;;;
2023/01/23 15:18:41;;;;;;;21.50;16.30;;;;;;;3.33;72.03;102512.96;104707;1325;25308;-89
2023/01/23 15:22:29;;;;;;;19.90;17.80;;;;;;;3.39;72.14;102518.30;104857;1319;22617;-88
2023/01/23 15:25:36;;;;;;;;;;;;;;;3.38;72.10;102519.68;104458;1328;22745;-87
2023/01/23 15:29:30;;;;;;;21.60;18.20;;;;;;;3.39;72.35;102519.70;103934;1328;22556;-88
2023/01/23 15:34:07;;;;;;;23.70;18.60;;;;;;;3.51;72.32;102524.35;105404;1308;557700;-89
2023/01/23 15:38:27;;;;;;;24.90;17.60;;;;;;;3.51;72.13;102519.28;107459;1289;23823;-90
2023/01/23 15:42:04;;;;;;;21.40;17.80;;;;;;;3.54;72.07;102520.89;108099;1289;26569;-90
2023/01/23 15:45:52;;;;;;;24.60;19.10;;;;;;;3.57;72.11;102521.38;107764;1296;23305;-88
2023/01/23 15:49:40;;;;;;;24.90;19.20;;;;;;;3.58;72.08;102522.97;102824;1297;22583;-89
2023/01/23 15:53:07;;;;;;;23.60;18.90;;;;;;;3.56;72.06;102525.85;108664;1268;22635;-88
2023/01/23 15:57:15;;;;;;;25.70;20.30;;;;;;;3.48;72.08;102527.70;107692;1299;22589;-87
2023/01/23 16:01:36;;;;;;;23.90;19.50;;;;;;;3.46;72.26;102526.20;107927;1299;24375;-86
2023/01/23 16:05:52;;;;;;;26.90;19.80;;;;;;;3.49;72.15;102530.01;106918;1304;22559;-88
2023/01/23 16:09:44;;;;;;;24.90;18.70;;;;;;;3.51;72.25;102531.33;105796;1304;22695;-89
2023/01/23 16:13:27;;;;;;;26.80;20.00;;;;;;;3.52;72.33;102529.29;105631;1303;22659;-90
2023/01/23 16:17:38;;;;;;;25.20;19.30;;;;;;;3.50;72.33;102533.20;105481;1303;22511;-89
2023/01/23 16:21:44;;;;;;;;;;;;;;;;;;;;;
2023/01/23 16:26:05;;;;;;;;;;;;;;;;;;;;;
2023/01/23 16:30:00;;;;;;;27.60;20.60;;;;;;;3.37;72.37;102534.61;105113;1303;22729;-90
2023/01/23 16:33:57;;;;;;;25.50;20.00;;;;;;;3.30;72.35;102529.64;105652;1294;22628;-89
2023/01/23 16:37:47;;;;;;;26.00;19.70;;;;;;;3.28;72.71;102528.67;107050;1301;22678;-88
2023/01/23 16:41:00;;;;;;;27.30;20.80;;;;;;;3.25;72.43;102530.45;107600;1300;22627;-87
2023/01/23 16:44:28;;;;;;;27.10;21.70;;;;;;;3.22;72.85;102537.27;108125;1300;22540;-87
2023/01/23 16:48:21;;;;;;;27.10;21.40;;;;;;;3.26;72.87;102537.30;107714;1299;22926;-87
2023/01/23 16:52:36;;;;;;;28.00;20.50;;;;;;;3.27;73.05;102543.58;107687;1299;23925;-87
2023/01/23 17:13:32;;;;;;;25.70;20.40;;;;;;;3.32;72.95;102556.80;105589;1308;23844;-90
2023/01/23 17:17:20;;;;;;;30.40;22.80;;;;;;;3.32;72.97;102559.59;106174;1308;23024;-88
2023/01/23 17:21:10;;;;;;;31.80;23.40;;;;;;;3.33;72.98;102559.45;106836;1310;22614;-89
2023/01/23 17:24:59;;;;;;;29.10;20.70;;;;;;;3.33;72.90;102563.96;107326;1310;22674;-88
2023/01/23 17:28:47;;;;;;;31.10;21.90;;;;;;;3.37;73.00;102565.58;106922;1299;22575;-88
2023/01/23 17:32:45;;;;;;;29.00;22.20;;;;;;;3.39;72.91;102560.11;106498;1314;22715;-89
2023/01/23 17:36:33;;;;;;;31.40;22.20;;;;;;;3.36;73.02;102558.75;105899;1314;24445;-88
2023/01/23 17:40:21;;;;;;;27.90;21.90;;;;;;;3.34;73.01;102556.20;105594;1318;22643;-84
2023/01/23 17:44:08;;;;;;;30.30;22.00;;;;;;;3.31;73.12;102556.52;106065;1315;24247;-86
2023/01/23 17:48:02;;;;;;;31.20;21.80;;;;;;;3.30;72.87;102552.80;106096;1315;22945;-87
2023/01/23 17:52:03;;;;;;;30.60;22.70;;;;;;;3.27;73.12;102557.91;105958;1309;24244;-87
2023/01/23 17:56:00;;;;;;;31.90;23.00;;;;;;;3.32;73.27;102560.93;104813;1309;23263;-88
2023/01/23 18:00:02;;;;;;;27.70;22.40;;;;;;;3.31;73.10;102561.27;104549;1309;22721;-91
2023/01/23 18:04:11;;;;;;;;;;;;;;;;;;;;;
2023/01/23 18:07:57;;;;;;;27.70;22.90;;;;;;;3.25;73.19;102559.17;106209;1310;22158;-89
2023/01/23 18:11:53;;;;;;;30.80;23.90;;;;;;;3.17;73.31;102557.52;104735;1308;23407;-88
2023/01/23 18:15:41;;;;;;;29.40;21.60;;;;;;;3.23;73.64;102559.08;104876;1309;22669;-88
2023/01/23 18:19:58;;;;;;;32.80;23.20;;;;;;;3.25;73.36;102556.89;105834;1308;22565;-88
2023/01/23 18:23:58;;;;;;;29.80;23.00;;;;;;;3.26;73.64;102556.11;104620;1313;22570;-87
2023/01/23 18:28:13;;;;;;;32.50;24.20;;;;;;;3.28;73.65;102563.54;105273;1313;22586;-87
2023/01/23 18:35:17;;;;;;;35.90;24.90;;;;;;;3.30;73.55;102561.55;107605;1279;25432;-86
2023/01/23 18:39:34;;;;;;;31.90;24.00;;;;;;;3.32;73.59;102559.21;106848;1289;22768;-89
2023/01/23 18:47:16;;;;;;;35.70;25.40;;;;;;;3.41;73.79;102563.34;105912;1297;24542;-85
2023/01/23 18:49:52;;;;;;;31.40;24.90;;;;;;;3.42;73.57;102563.61;104839;1305;24296;-85
2023/01/23 18:53:10;;;;;;;38.80;26.80;;;;;;;3.41;73.45;102560.44;104691;1291;22729;-87
2023/01/23 18:56:23;;;;;;;35.20;24.80;;;;;;;3.39;73.45;102561.35;104730;1302;22562;-86
2023/01/23 19:10:45;;;;;;;36.90;25.90;;;;;;;4.00;72.42;102557.46;107366;1273;561564;-87
2023/01/23 19:13:55;;;;;;;31.90;24.00;;;;;;;4.05;71.96;102564.33;105190;1257;5114700;-87
2023/01/23 19:17:12;;;;;;;34.90;25.30;;;;;;;3.98;72.40;102566.23;109524;1257;22451;-84
2023/01/23 19:20:52;;;;;;;41.60;30.00;;;;;;;3.88;72.47;102568.48;109550;1268;22539;-87
2023/01/23 19:24:40;;;;;;;40.10;27.10;;;;;;;3.86;73.40;102576.06;110741;1268;22494;-88
2023/01/23 19:27:54;;;;;;;37.70;27.10;;;;;;;3.87;73.22;102576.45;111018;1267;22493;-87
2023/01/23 19:30:28;;;;;;;40.60;27.30;;;;;;;3.89;73.54;102572.08;110458;1267;23485;-86
2023/01/23 19:33:50;;;;;;;35.70;25.10;;;;;;;3.95;73.15;102573.39;109169;1267;22571;-86
2023/01/23 19:36:57;;;;;;;32.20;25.80;;;;;;;3.95;72.92;102574.45;109193;1267;22511;-86
2023/01/23 19:40:49;;;;;;;34.80;25.80;;;;;;;3.91;72.90;102572.48;108403;1269;22579;-87
2023/01/23 19:44:37;;;;;;;34.50;26.60;;;;;;;3.88;72.86;102577.03;107816;1273;22645;-90
2023/01/23 19:48:29;;;;;;;32.90;24.40;;;;;;;3.73;72.54;102580.07;108184;1273;22541;-86
2023/01/23 19:52:23;;;;;;;34.40;25.60;;;;;;;3.55;72.79;102578.94;107267;1279;24186;-85
2023/01/23 19:56:45;;;;;;;;;;;;;;;;;;;;;
2023/01/23 20:03:19;;;;;;;35.70;27.20;;;;;;;3.44;73.37;102586.36;108070;1267;22669;-87
2023/01/23 20:07:05;;;;;;;;;;;;;;;;;;;;;
2023/01/23 20:09:40;;;;;;;38.70;26.50;;;;;;;3.40;73.59;102590.99;108248;1268;25411;-86
2023/01/23 20:13:13;;;;;;;38.10;26.40;;;;;;;3.38;73.59;102590.58;107991;1253;23178;-85
2023/01/23 20:17:01;;;;;;;36.50;27.60;;;;;;;3.40;73.74;102596.59;108719;1269;22538;-86
2023/01/23 20:20:34;;;;;;;35.20;25.30;;;;;;;3.43;73.64;102592.23;107912;1273;24297;-86
2023/01/23 20:23:47;;;;;;;36.80;25.50;;;;;;;3.44;73.63;102587.58;108456;1272;23898;-84
2023/01/23 20:26:20;;;;;;;44.10;28.40;;;;;;;3.45;73.70;102584.52;108021;1274;25295;-84
2023/01/23 20:28:52;;;;;;;44.80;28.10;;;;;;;3.44;73.70;102584.62;107610;1272;22553;-83
2023/01/23 20:31:22;;;;;;;42.80;27.70;;;;;;;3.43;73.59;102588.91;108013;1270;22585;-83
2023/01/23 20:37:47;;;;;;;41.10;28.20;;;;;;;3.34;73.35;102589.31;108859;1267;24244;-87
2023/01/23 20:40:58;;;;;;;43.10;29.40;;;;;;;3.29;73.48;102583.27;108799;1267;25412;-85
2023/01/23 20:47:43;;;;;;;39.70;28.20;;;;;;;3.14;74.07;102588.52;108940;1269;22551;-84
2023/01/23 21:06:58;;;;;;;49.30;29.70;;;;;;;3.87;73.08;102589.54;106111;1299;558114;-87
2023/01/23 21:10:31;;;;;;;44.20;29.40;;;;;;;3.92;72.67;102588.78;100075;1280;10214618;-85
2023/01/23 21:13:39;;;;;;;40.60;29.60;;;;;;;3.83;73.02;102593.16;107305;1285;25247;-83
2023/01/23 21:16:52;;;;;;;44.10;29.30;;;;;;;3.79;73.21;102591.91;109921;1285;22137;-86
2023/01/23 21:19:39;;;;;;;46.30;29.40;;;;;;;3.72;73.18;102592.23;109535;1292;22195;-86
2023/01/23 21:22:34;;;;;;;45.70;29.50;;;;;;;3.63;73.21;102590.50;109550;1292;22167;-87
2023/01/23 21:25:06;;;;;;;41.60;29.10;;;;;;;3.59;73.61;102588.55;108927;1292;22192;-87
2023/01/23 21:28:39;;;;;;;49.50;30.10;;;;;;;3.54;73.51;102592.48;108547;1298;22197;-85
2023/01/23 21:31:38;;;;;;;45.40;29.40;;;;;;;3.48;73.47;102596.67;108513;1299;22186;-84
2023/01/23 21:39:08;;;;;;;52.60;30.90;;;;;;;3.51;73.93;102602.40;109187;1294;22192;-86
2023/01/23 21:45:35;;;;;;;50.40;30.50;;;;;;;3.49;73.99;102603.84;109709;1289;22209;-87
2023/01/23 21:48:06;;;;;;;46.50;31.10;;;;;;;3.47;74.00;102596.80;109578;1289;22243;-85
2023/01/23 21:50:37;;;;;;;49.30;31.30;;;;;;;3.44;74.05;102600.12;109956;1281;22242;-86
2023/01/23 21:53:12;;;;;;;44.60;29.50;;;;;;;3.44;74.07;102596.65;110057;1281;22300;-85
2023/01/23 21:56:06;;;;;;;49.50;32.60;;;;;;;3.44;74.01;102597.33;110166;1279;22207;-86
2023/01/23 21:58:34;;;;;;;45.50;30.90;;;;;;;3.43;73.90;102597.13;109770;1284;22194;-89
2023/01/23 22:04:40;;;;;;;48.80;30.20;;;;;;;3.41;74.16;102593.31;109888;1284;22395;-86
2023/01/23 22:07:11;;;;;;;51.50;32.50;;;;;;;3.40;74.15;102595.36;109034;1291;22238;-84
2023/01/23 22:09:43;;;;;;;45.50;31.60;;;;;;;3.39;74.08;102596.67;108863;1295;22225;-84
2023/01/23 22:12:11;;;;;;;50.70;31.00;;;;;;;3.37;73.98;102595.21;108397;1297;22189;-84
2023/01/23 22:15:22;;;;;;;49.00;31.10;;;;;;;3.36;74.11;102596.55;108426;1300;22311;-87
2023/01/23 22:17:54;;;;;;;45.50;30.30;;;;;;;3.41;74.35;102599.60;108056;1303;22281;-84
2023/01/23 22:20:23;;;;;;;53.50;31.60;;;;;;;3.44;74.30;102601.67;108193;1304;22202;-85
2023/01/23 22:23:23;;;;;;;47.90;32.30;;;;;;;3.45;74.11;102603.84;108306;1297;23189;-87
2023/01/23 22:26:20;;;;;;;48.50;31.30;;;;;;;3.42;73.90;102604.88;109093;1291;22161;-86
2023/01/23 22:29:32;;;;;;;50.30;31.80;;;;;;;3.36;74.19;102604.70;109740;1286;22153;-87
2023/01/23 22:36:21;;;;;;;49.40;32.30;;;;;;;3.44;74.27;102603.23;109817;1284;22175;-85
2023/01/23 22:38:53;;;;;;;48.70;31.10;;;;;;;3.43;73.98;102600.26;109885;1285;22175;-84
2023/01/23 22:41:28;;;;;;;56.70;33.10;;;;;;;3.41;74.17;102605.52;109737;1284;22173;-87
2023/01/23 22:44:46;;;;;;;47.60;30.90;;;;;;;3.41;74.18;102604.48;109879;1284;22180;-86
2023/01/23 22:48:22;;;;;;;48.30;31.40;;;;;;;3.33;74.05;102606.11;109795;1287;22243;-87
2023/01/23 22:50:59;;;;;;;53.60;32.20;;;;;;;3.30;74.30;102606.67;109793;1285;22859;-86
2023/01/23 22:53:52;;;;;;;53.40;31.90;;;;;;;3.28;74.41;102608.30;109930;1285;22166;-84
2023/01/23 22:56:26;;;;;;;48.50;30.80;;;;;;;3.33;74.45;102610.30;109841;1285;22338;-86
2023/01/23 22:58:55;;;;;;;54.40;32.90;;;;;;;3.35;74.57;102613.52;109739;1284;22943;-88
2023/01/23 23:01:23;;;;;;;48.40;31.40;;;;;;;3.39;74.58;102616.94;109574;1286;22281;-85
2023/01/23 23:03:52;;;;;;;54.10;31.50;;;;;;;3.40;74.29;102619.26;109767;1263;22178;-84
2023/01/23 23:06:19;;;;;;;47.90;31.50;;;;;;;3.41;74.47;102618.23;109562;1286;22223;-86
2023/01/23 23:08:47;;;;;;;51.70;32.50;;;;;;;3.41;74.51;102615.62;109712;1286;22177;-86
2023/01/23 23:11:29;;;;;;;47.10;31.30;;;;;;;3.42;74.43;102619.85;109908;1282;22323;-85
2023/01/23 23:13:57;;;;;;;51.70;31.40;;;;;;;3.46;74.36;102619.58;109896;1282;22412;-86
2023/01/23 23:16:34;;;;;;;50.90;31.40;;;;;;;3.45;74.26;102617.76;109539;1288;22152;-85
2023/01/23 23:19:04;;;;;;;46.50;30.00;;;;;;;3.42;74.04;102617.61;109806;1282;22136;-86
2023/01/23 23:21:35;;;;;;;47.30;32.10;;;;;;;3.37;74.16;102619.24;109719;1286;23065;-85
2023/01/23 23:24:06;;;;;;;49.30;31.80;;;;;;;3.37;74.28;102622.87;109209;1283;23118;-85
2023/01/23 23:26:35;;;;;;;48.50;31.50;;;;;;;3.36;74.45;102620.58;109327;1292;22173;-86
2023/01/23 23:29:04;;;;;;;53.30;32.40;;;;;;;3.40;74.46;102621.83;109190;1283;22233;-86
2023/01/23 23:31:34;;;;;;;49.30;30.80;;;;;;;3.40;74.45;102618.69;109352;1292;22235;-84
2023/01/23 23:34:14;;;;;;;44.10;29.50;;;;;;;3.39;74.18;102612.17;109451;1286;22154;-85
2023/01/23 23:36:42;;;;;;;48.00;32.30;;;;;;;3.42;74.58;102610.64;109774;1286;22140;-86
2023/01/23 23:39:12;;;;;;;52.70;32.00;;;;;;;3.46;74.54;102610.01;109843;1282;22178;-86
2023/01/23 23:42:06;;;;;;;53.20;33.40;;;;;;;3.44;74.25;102610.08;109996;1276;22167;-87
2023/01/23 23:44:34;;;;;;;51.10;33.80;;;;;;;3.45;74.47;102611.30;110389;1276;22302;-85
2023/01/23 23:47:23;;;;;;;48.60;31.40;;;;;;;3.45;74.36;102613.78;110398;1269;22133;-85
2023/01/23 23:49:53;;;;;;;50.70;30.50;;;;;;;3.44;74.34;102610.75;110145;1279;22154;-86
2023/01/23 23:52:45;;;;;;;49.60;31.60;;;;;;;3.45;74.52;102610.83;110239;1272;22978;-85
2023/01/23 23:55:19;;;;;;;47.70;30.60;;;;;;;3.51;74.39;102613.92;109919;1285;22156;-85
2023/01/23 23:57:52;;;;;;;51.30;31.50;;;;;;;3.53;74.51;102612.11;109802;1285;22182;-87
